createdAt,value
2022-08-17T00:01:36.340Z,25.44
2022-08-17T00:04:19.461Z,25.41
2022-08-17T00:06:49.340Z,25.40
2022-08-17T00:09:19.212Z,25.37
2022-08-17T00:12:41.556Z,25.38
2022-08-17T00:14:36.250Z,25.35
2022-08-17T00:17:04.833Z,25.34
2022-08-17T00:19:32.751Z,25.31
2022-08-17T00:22:31.705Z,25.09
2022-08-17T00:24:50.402Z,25.07
2022-08-17T00:27:17.518Z,25.04
2022-08-17T00:29:45.960Z,24.92
2022-08-17T00:33:12.633Z,24.83
2022-08-17T00:35:05.153Z,24.75
2022-08-17T00:37:31.873Z,24.72
2022-08-17T00:39:58.733Z,24.69
2022-08-17T00:42:30.823Z,24.72
2022-08-17T00:44:58.328Z,24.79
2022-08-17T00:47:25.156Z,24.83
2022-08-17T00:49:52.340Z,24.79
2022-08-17T00:52:23.218Z,24.71
2022-08-17T00:54:53.395Z,24.68
2022-08-17T00:57:26.349Z,24.71
2022-08-17T01:00:02.137Z,24.71
2022-08-17T01:02:42.629Z,24.71
2022-08-17T01:05:16.457Z,24.71
2022-08-17T01:07:48.085Z,24.58
2022-08-17T01:11:00.253Z,24.41
2022-08-17T01:13:04.179Z,24.34
2022-08-17T01:15:36.458Z,24.16
2022-08-17T01:18:06.046Z,24.18
2022-08-17T01:20:48.272Z,24.07
2022-08-17T01:23:20.459Z,24.00
2022-08-17T01:25:53.061Z,24.06
2022-08-17T01:28:36.360Z,23.92
2022-08-17T01:31:09.002Z,23.94
2022-08-17T01:33:36.165Z,23.99
2022-08-17T01:36:05.105Z,24.01
2022-08-17T01:38:32.049Z,24.04
2022-08-17T01:41:03.236Z,24.07
2022-08-17T01:44:00.240Z,24.11
2022-08-17T01:46:31.089Z,24.13
2022-08-17T01:48:58.605Z,24.16
2022-08-17T01:51:32.950Z,24.14
2022-08-17T01:54:05.181Z,24.06
2022-08-17T01:56:34.529Z,23.97
2022-08-17T01:59:01.450Z,24.00
2022-08-17T02:01:30.469Z,24.00
2022-08-17T02:04:00.935Z,24.03
2022-08-17T02:06:45.155Z,24.03
2022-08-17T02:09:25.142Z,24.04
2022-08-17T02:11:54.478Z,24.03
2022-08-17T02:14:22.033Z,24.04
2022-08-17T02:16:48.669Z,24.03
2022-08-17T02:19:16.541Z,24.07
2022-08-17T02:21:46.110Z,24.03
2022-08-17T02:24:58.707Z,24.04
2022-08-17T02:27:06.575Z,24.00
2022-08-17T02:29:33.257Z,23.97
2022-08-17T02:32:00.277Z,23.96
2022-08-17T02:34:27.601Z,23.96
2022-08-17T02:36:54.254Z,24.00
2022-08-17T02:39:20.935Z,24.01
2022-08-17T02:41:47.657Z,24.01
2022-08-17T02:44:14.446Z,24.04
2022-08-17T02:47:01.519Z,24.00
2022-08-17T02:49:28.209Z,23.97
2022-08-17T02:51:57.684Z,23.97
2022-08-17T02:54:41.756Z,23.97
2022-08-17T02:57:10.483Z,23.94
2022-08-17T02:59:38.664Z,23.96
2022-08-17T03:02:08.804Z,23.96
2022-08-17T03:04:35.961Z,23.97
2022-08-17T03:07:03.669Z,23.92
2022-08-17T03:09:30.352Z,23.90
2022-08-17T03:12:14.120Z,23.83
2022-08-17T03:14:42.991Z,23.76
2022-08-17T03:17:12.770Z,23.79
2022-08-17T03:19:44.556Z,23.77
2022-08-17T03:22:36.774Z,23.79
2022-08-17T03:24:58.666Z,23.83
2022-08-17T03:27:25.458Z,23.80
2022-08-17T03:29:52.108Z,23.79
2022-08-17T03:32:20.799Z,23.80
2022-08-17T03:34:47.802Z,23.77
2022-08-17T03:37:14.837Z,23.77
2022-08-17T03:39:41.561Z,23.74
2022-08-17T03:42:31.152Z,23.76
2022-08-17T03:44:59.282Z,23.73
2022-08-17T03:47:44.755Z,23.74
2022-08-17T03:50:31.262Z,23.74
2022-08-17T03:53:16.656Z,23.77
2022-08-17T03:56:02.223Z,23.80
2022-08-17T03:58:28.870Z,23.79
2022-08-17T04:00:56.124Z,23.82
2022-08-17T04:03:22.828Z,23.83
2022-08-17T04:05:49.516Z,23.84
2022-08-17T04:08:16.152Z,23.86
2022-08-17T04:10:45.042Z,23.82
2022-08-17T04:13:12.073Z,23.87
2022-08-17T04:15:38.739Z,23.89
2022-08-17T04:18:07.347Z,23.86
2022-08-17T04:20:34.777Z,23.83
2022-08-17T04:23:09.566Z,23.86
2022-08-17T04:25:39.032Z,23.87
2022-08-17T04:28:09.017Z,23.89
2022-08-17T04:30:45.321Z,23.89
2022-08-17T04:33:14.874Z,23.94
2022-08-17T04:35:47.480Z,23.89
2022-08-17T04:38:17.574Z,23.87
2022-08-17T04:41:03.101Z,23.87
2022-08-17T04:43:32.085Z,23.86
2022-08-17T04:46:01.666Z,23.82
2022-08-17T04:48:36.439Z,23.84
2022-08-17T04:51:34.871Z,23.86
2022-08-17T04:54:08.098Z,23.89
2022-08-17T04:56:35.209Z,23.86
2022-08-17T04:59:13.479Z,23.83
2022-08-17T05:01:41.282Z,23.80
2022-08-17T05:04:20.889Z,23.84
2022-08-17T05:06:54.521Z,23.87
2022-08-17T05:09:21.264Z,23.86
2022-08-17T05:11:49.137Z,23.89
2022-08-17T05:14:15.873Z,23.90
2022-08-17T05:16:42.588Z,23.90
2022-08-17T05:19:09.261Z,23.94
2022-08-17T05:21:36.013Z,23.93
2022-08-17T05:24:05.980Z,23.92
2022-08-17T05:26:44.286Z,23.93
2022-08-17T05:29:10.925Z,23.92
2022-08-17T05:31:37.550Z,23.89
2022-08-17T05:34:04.317Z,23.93
2022-08-17T05:36:43.150Z,23.92
2022-08-17T05:39:15.882Z,23.90
2022-08-17T05:41:44.649Z,23.93
2022-08-17T05:44:11.288Z,23.94
2022-08-17T05:46:41.764Z,23.96
2022-08-17T05:49:08.889Z,23.94
2022-08-17T05:51:35.458Z,24.00
2022-08-17T05:54:50.017Z,23.97
2022-08-17T05:57:53.035Z,23.99
2022-08-17T06:00:41.902Z,24.00
2022-08-17T06:03:17.699Z,23.99
2022-08-17T06:05:51.629Z,23.99
2022-08-17T06:08:32.203Z,23.97
2022-08-17T06:11:11.941Z,23.96
2022-08-17T06:13:56.472Z,23.96
2022-08-17T06:16:34.341Z,23.94
2022-08-17T06:19:52.494Z,23.99
2022-08-17T06:22:22.281Z,24.01
2022-08-17T06:24:56.858Z,24.00
2022-08-17T06:27:37.592Z,24.00
2022-08-17T06:30:14.161Z,24.00
2022-08-17T06:32:44.577Z,23.99
2022-08-17T06:35:14.140Z,23.97
2022-08-17T06:37:58.381Z,23.99
2022-08-17T06:40:33.816Z,24.03
2022-08-17T06:43:19.458Z,24.04
2022-08-17T06:45:54.302Z,24.07
2022-08-17T06:48:52.374Z,24.09
2022-08-17T06:51:27.553Z,24.13
2022-08-17T06:54:05.928Z,24.13
2022-08-17T06:56:54.789Z,24.17
2022-08-17T06:59:56.048Z,24.22
2022-08-17T07:02:53.142Z,24.28
2022-08-17T07:05:24.282Z,24.28
2022-08-17T07:08:02.903Z,24.25
2022-08-17T07:10:36.845Z,24.31
2022-08-17T07:13:20.128Z,24.31
2022-08-17T07:15:56.408Z,24.31
2022-08-17T07:18:26.718Z,24.31
2022-08-17T07:20:59.974Z,24.30
2022-08-17T07:23:38.308Z,24.31
2022-08-17T07:26:09.176Z,24.30
2022-08-17T07:28:36.564Z,24.31
2022-08-17T07:31:04.774Z,24.20
2022-08-17T07:33:34.341Z,24.01
2022-08-17T07:36:01.679Z,23.89
2022-08-17T07:38:30.450Z,23.90
2022-08-17T07:41:04.876Z,24.00
2022-08-17T07:43:36.169Z,24.00
2022-08-17T07:46:33.757Z,24.07
2022-08-17T07:49:09.220Z,24.00
2022-08-17T07:51:39.876Z,23.97
2022-08-17T07:54:15.650Z,23.97
2022-08-17T07:56:52.614Z,24.00
2022-08-17T07:59:23.592Z,24.06
2022-08-17T08:01:57.729Z,24.13
2022-08-17T08:05:01.402Z,24.11
2022-08-17T08:07:54.337Z,24.17
2022-08-17T08:10:42.746Z,24.10
2022-08-17T08:13:26.101Z,24.13
2022-08-17T08:15:55.813Z,24.22
2022-08-17T08:18:54.560Z,24.31
2022-08-17T08:21:35.525Z,24.41
2022-08-17T08:24:11.151Z,24.54
2022-08-17T08:26:47.939Z,24.59
2022-08-17T08:29:22.516Z,24.69
2022-08-17T08:32:10.271Z,24.73
2022-08-17T08:35:06.684Z,24.76
2022-08-17T08:37:51.644Z,24.76
2022-08-17T08:40:41.237Z,24.71
2022-08-17T08:43:28.907Z,24.68
2022-08-17T08:46:20.326Z,24.68
2022-08-17T08:49:12.509Z,24.69
2022-08-17T08:51:55.527Z,24.73
2022-08-17T08:54:54.812Z,24.79
2022-08-17T08:57:34.394Z,24.83
2022-08-17T09:00:04.744Z,24.86
2022-08-17T09:02:46.029Z,24.87
2022-08-17T09:05:35.734Z,24.90
2022-08-17T09:08:27.049Z,24.86
2022-08-17T09:11:02.918Z,24.85
2022-08-17T09:13:54.330Z,24.73
2022-08-17T09:16:36.097Z,24.65
2022-08-17T09:19:19.481Z,24.62
2022-08-17T09:21:54.785Z,24.69
2022-08-17T09:24:30.485Z,24.76
2022-08-17T09:27:11.047Z,24.82
2022-08-17T09:29:45.900Z,24.89
2022-08-17T09:32:49.994Z,24.99
2022-08-17T09:35:19.900Z,25.04
2022-08-17T09:38:16.902Z,25.14
2022-08-17T09:40:48.849Z,25.12
2022-08-17T09:43:52.713Z,25.10
2022-08-17T09:46:27.141Z,25.10
2022-08-17T09:48:59.939Z,25.06
2022-08-17T09:51:40.192Z,24.93
2022-08-17T09:54:37.970Z,24.93
2022-08-17T09:57:30.502Z,24.79
2022-08-17T10:00:29.172Z,24.77
2022-08-17T10:03:09.620Z,24.85
2022-08-17T10:06:00.262Z,24.96
2022-08-17T10:08:55.979Z,25.03
2022-08-17T10:11:54.440Z,25.12
2022-08-17T10:14:46.338Z,25.16
2022-08-17T10:17:50.696Z,25.26
2022-08-17T10:20:26.356Z,25.38
2022-08-17T10:23:52.991Z,25.45
2022-08-17T10:26:25.335Z,25.52
2022-08-17T10:29:00.542Z,25.61
2022-08-17T10:31:45.947Z,25.74
2022-08-17T10:34:19.219Z,25.85
2022-08-17T10:37:04.337Z,25.86
2022-08-17T10:39:52.308Z,25.84
2022-08-17T10:42:30.146Z,25.90
2022-08-17T10:45:05.474Z,25.95
2022-08-17T10:47:56.094Z,26.03
2022-08-17T10:50:48.123Z,26.16
2022-08-17T10:53:33.196Z,26.27
2022-08-17T10:56:12.108Z,26.40
2022-08-17T10:58:56.063Z,26.50
2022-08-17T11:01:43.501Z,26.58
2022-08-17T11:04:19.757Z,26.68
2022-08-17T11:07:08.318Z,26.75
2022-08-17T11:10:12.577Z,26.71
2022-08-17T11:13:05.772Z,26.74
2022-08-17T11:16:08.985Z,26.84
2022-08-17T11:18:46.603Z,26.82
2022-08-17T11:21:35.009Z,26.85
2022-08-17T11:24:33.046Z,26.94
2022-08-17T11:27:12.184Z,27.06
2022-08-17T11:29:52.001Z,27.15
2022-08-17T11:32:47.585Z,27.20
2022-08-17T11:35:20.371Z,27.29
2022-08-17T11:37:56.091Z,27.36
2022-08-17T11:40:56.576Z,27.42
2022-08-17T11:43:32.284Z,27.50
2022-08-17T11:46:45.940Z,27.50
2022-08-17T11:50:04.832Z,27.53
2022-08-17T11:52:37.329Z,27.60
2022-08-17T11:55:33.945Z,27.64
2022-08-17T11:58:02.229Z,27.70
2022-08-17T12:00:47.353Z,27.71
2022-08-17T12:03:34.250Z,27.76
2022-08-17T12:06:17.569Z,27.80
2022-08-17T12:08:52.406Z,27.78
2022-08-17T12:11:55.159Z,27.67
2022-08-17T12:15:08.515Z,27.68
2022-08-17T12:17:39.757Z,27.64
2022-08-17T12:20:23.179Z,27.61
2022-08-17T12:23:08.834Z,27.60
2022-08-17T12:25:43.045Z,27.47
2022-08-17T12:28:27.213Z,27.39
2022-08-17T12:30:56.119Z,27.30
2022-08-17T12:33:28.509Z,27.23
2022-08-17T12:35:59.729Z,27.22
2022-08-17T12:38:33.133Z,27.15
2022-08-17T12:41:21.914Z,27.06
2022-08-17T12:44:02.358Z,26.96
2022-08-17T12:46:44.768Z,26.96
2022-08-17T12:49:19.785Z,26.94
2022-08-17T12:51:47.811Z,26.96
2022-08-17T12:54:29.465Z,26.94
2022-08-17T12:56:57.115Z,26.94
2022-08-17T12:59:29.873Z,26.94
2022-08-17T13:01:57.804Z,26.95
2022-08-17T13:04:26.492Z,26.99
2022-08-17T13:06:59.666Z,27.02
2022-08-17T13:09:35.811Z,27.07
2022-08-17T13:12:07.065Z,27.03
2022-08-17T13:14:35.210Z,26.99
2022-08-17T13:17:09.676Z,27.00
2022-08-17T13:19:49.963Z,27.05
2022-08-17T13:22:22.440Z,27.12
2022-08-17T13:24:56.834Z,27.16
2022-08-17T13:27:26.143Z,27.23
2022-08-17T13:29:57.555Z,27.29
2022-08-17T13:32:44.157Z,27.37
2022-08-17T13:35:39.502Z,27.44
2022-08-17T13:38:09.245Z,27.47
2022-08-17T13:40:49.295Z,27.49
2022-08-17T13:43:42.826Z,27.51
2022-08-17T13:46:21.866Z,27.55
2022-08-17T13:49:19.158Z,27.53
2022-08-17T13:51:47.614Z,27.54
2022-08-17T13:54:26.674Z,27.57
2022-08-17T13:57:00.894Z,27.60
2022-08-17T13:59:54.513Z,27.64
2022-08-17T14:02:23.367Z,27.65
2022-08-17T14:04:54.360Z,27.62
2022-08-17T14:07:27.389Z,27.64
2022-08-17T14:10:05.924Z,27.68
2022-08-17T14:12:34.461Z,27.71
2022-08-17T14:15:02.054Z,27.71
2022-08-17T14:17:29.661Z,27.71
2022-08-17T14:19:56.291Z,27.72
2022-08-17T14:22:28.162Z,27.74
2022-08-17T14:24:57.989Z,27.71
2022-08-17T14:27:28.215Z,27.68
2022-08-17T14:29:56.499Z,27.61
2022-08-17T14:32:29.884Z,27.61
2022-08-17T14:34:57.787Z,27.64
2022-08-17T14:37:28.043Z,27.68
2022-08-17T14:39:57.063Z,27.74
2022-08-17T14:42:25.453Z,27.76
2022-08-17T14:44:53.453Z,27.72
2022-08-17T14:47:20.607Z,27.71
2022-08-17T14:49:51.192Z,27.76
2022-08-17T14:52:21.720Z,27.74
2022-08-17T14:54:51.531Z,27.76
2022-08-17T14:57:33.743Z,27.77
2022-08-17T15:00:01.984Z,27.77
2022-08-17T15:02:30.846Z,27.72
2022-08-17T15:05:03.590Z,27.65
2022-08-17T15:07:31.797Z,27.62
2022-08-17T15:10:02.531Z,27.62
2022-08-17T15:12:33.646Z,27.62
2022-08-17T15:15:04.521Z,27.65
2022-08-17T15:17:45.186Z,27.67
2022-08-17T15:20:19.170Z,27.72
2022-08-17T15:22:49.838Z,27.80
2022-08-17T15:25:18.778Z,27.80
2022-08-17T15:27:45.451Z,27.78
2022-08-17T15:30:12.758Z,27.81
2022-08-17T15:32:50.833Z,27.78
2022-08-17T15:35:27.490Z,27.81
2022-08-17T15:38:06.122Z,27.84
2022-08-17T15:40:41.231Z,27.85
2022-08-17T15:43:10.943Z,27.82
2022-08-17T15:45:38.484Z,27.81
2022-08-17T15:48:05.283Z,27.77
2022-08-17T15:50:32.203Z,27.77
2022-08-17T15:53:00.994Z,27.74
2022-08-17T15:55:29.733Z,27.76
2022-08-17T15:57:56.386Z,27.71
2022-08-17T16:00:24.108Z,27.70
2022-08-17T16:03:45.965Z,27.72
2022-08-17T16:05:37.835Z,27.68
2022-08-17T16:08:07.826Z,27.65
2022-08-17T16:10:35.386Z,27.62
2022-08-17T16:13:03.588Z,27.58
2022-08-17T16:15:31.882Z,27.58
2022-08-17T16:17:59.264Z,27.58
2022-08-17T16:20:26.066Z,27.60
2022-08-17T16:22:54.502Z,27.60
2022-08-17T16:25:52.288Z,27.57
2022-08-17T16:28:17.546Z,27.53
2022-08-17T16:30:44.668Z,27.49
2022-08-17T16:33:11.813Z,27.47
2022-08-17T16:35:42.043Z,27.42
2022-08-17T16:38:09.624Z,27.36
2022-08-17T16:40:38.176Z,27.33
2022-08-17T16:43:10.648Z,27.27
2022-08-17T16:45:40.715Z,27.26
2022-08-17T16:48:08.782Z,27.26
2022-08-17T16:50:36.644Z,27.26
2022-08-17T16:53:10.354Z,27.23
2022-08-17T16:55:38.529Z,27.19
2022-08-17T16:58:06.089Z,27.22
2022-08-17T17:00:33.766Z,27.20
2022-08-17T17:03:20.204Z,27.20
2022-08-17T17:05:57.878Z,27.17
2022-08-17T17:08:27.700Z,27.16
2022-08-17T17:10:56.550Z,27.15
2022-08-17T17:13:35.029Z,27.13
2022-08-17T17:16:25.110Z,27.09
2022-08-17T17:19:14.999Z,27.10
2022-08-17T17:21:52.020Z,27.09
2022-08-17T17:24:36.943Z,27.05
2022-08-17T17:27:19.742Z,27.02
2022-08-17T17:29:52.815Z,27.00
2022-08-17T17:32:38.172Z,27.02
2022-08-17T17:35:27.816Z,27.05
2022-08-17T17:37:57.391Z,26.98
2022-08-17T17:40:29.052Z,26.99
2022-08-17T17:43:09.480Z,26.98
2022-08-17T17:45:57.182Z,26.95
2022-08-17T17:48:28.500Z,26.91
2022-08-17T17:51:16.757Z,26.89
2022-08-17T17:54:11.580Z,26.87
2022-08-17T17:56:54.517Z,26.92
2022-08-17T17:59:44.377Z,26.88
2022-08-17T18:02:36.987Z,26.92
2022-08-17T18:05:19.586Z,26.88
2022-08-17T18:08:32.318Z,26.82
2022-08-17T18:11:24.726Z,26.79
2022-08-17T18:14:14.447Z,26.78
2022-08-17T18:16:42.924Z,26.78
2022-08-17T18:19:22.527Z,26.68
2022-08-17T18:22:00.777Z,26.65
2022-08-17T18:24:38.146Z,26.61
2022-08-17T18:27:27.839Z,26.51
2022-08-17T18:29:56.762Z,26.41
2022-08-17T18:32:42.204Z,26.37
2022-08-17T18:35:08.812Z,26.31
2022-08-17T18:37:41.133Z,26.27
2022-08-17T18:40:16.882Z,26.27
2022-08-17T18:42:56.974Z,26.29
2022-08-17T18:45:48.596Z,26.30
2022-08-17T18:48:26.410Z,26.30
2022-08-17T18:50:56.684Z,26.33
2022-08-17T18:53:34.322Z,26.30
2022-08-17T18:56:36.142Z,26.33
2022-08-17T18:59:31.368Z,26.34
2022-08-17T19:02:22.050Z,26.29
2022-08-17T19:05:03.973Z,26.27
2022-08-17T19:07:39.941Z,26.26
2022-08-17T19:10:31.733Z,26.22
2022-08-17T19:13:12.406Z,26.19
2022-08-17T19:16:11.764Z,26.13
2022-08-17T19:18:43.477Z,26.13
2022-08-17T19:21:23.616Z,26.10
2022-08-17T19:23:53.761Z,26.06
2022-08-17T19:26:51.100Z,26.07
2022-08-17T19:29:25.782Z,26.05
2022-08-17T19:31:55.297Z,25.96
2022-08-17T19:34:33.333Z,25.93
2022-08-17T19:37:12.679Z,25.90
2022-08-17T19:39:45.084Z,25.92
2022-08-17T19:42:37.399Z,25.96
2022-08-17T19:45:17.484Z,25.97
2022-08-17T19:48:03.102Z,25.93
2022-08-17T19:50:38.488Z,25.90
2022-08-17T19:53:41.754Z,25.89
2022-08-17T19:56:31.773Z,25.86
2022-08-17T19:59:13.261Z,25.84
2022-08-17T20:02:19.770Z,25.84
2022-08-17T20:04:50.262Z,25.81
2022-08-17T20:07:22.166Z,25.81
2022-08-17T20:09:58.896Z,25.81
2022-08-17T20:12:35.793Z,25.81
2022-08-17T20:15:10.126Z,25.82
2022-08-17T20:17:40.421Z,25.84
2022-08-17T20:20:27.934Z,25.82
2022-08-17T20:23:39.890Z,25.78
2022-08-17T20:26:19.420Z,25.76
2022-08-17T20:29:14.028Z,25.69
2022-08-17T20:31:55.701Z,25.67
2022-08-17T20:34:38.012Z,25.61
2022-08-17T20:37:26.050Z,25.58
2022-08-17T20:39:52.775Z,25.57
2022-08-17T20:42:22.431Z,25.52
2022-08-17T20:44:59.270Z,25.54
2022-08-17T20:47:34.615Z,25.58
2022-08-17T20:50:10.601Z,25.54
2022-08-17T20:52:48.818Z,25.51
2022-08-17T20:55:34.433Z,25.47
2022-08-17T20:58:16.470Z,25.44
2022-08-17T21:00:54.665Z,25.47
2022-08-17T21:03:24.024Z,25.44
2022-08-17T21:06:00.396Z,25.42
2022-08-17T21:08:33.467Z,25.35
2022-08-17T21:11:21.231Z,25.41
2022-08-17T21:14:22.881Z,25.42
2022-08-17T21:17:17.633Z,25.38
2022-08-17T21:20:17.438Z,25.47
2022-08-17T21:22:47.102Z,25.47
2022-08-17T21:25:34.218Z,25.52
2022-08-17T21:28:33.963Z,25.54
2022-08-17T21:31:09.227Z,25.55
2022-08-17T21:33:39.750Z,25.52
2022-08-17T21:36:12.291Z,25.44
2022-08-17T21:38:48.753Z,25.31
2022-08-17T21:41:27.528Z,25.21
2022-08-17T21:44:02.856Z,25.19
2022-08-17T21:46:36.987Z,25.13
2022-08-17T21:49:13.432Z,25.02
2022-08-17T21:51:56.469Z,24.87
2022-08-17T21:54:34.724Z,24.76
2022-08-17T21:57:06.526Z,24.69
2022-08-17T21:59:37.538Z,24.65
2022-08-17T22:02:08.434Z,24.61
2022-08-17T22:04:38.300Z,24.59
2022-08-17T22:07:12.136Z,24.61
2022-08-17T22:09:45.740Z,24.54
2022-08-17T22:12:18.101Z,24.54
2022-08-17T22:15:00.491Z,24.55
2022-08-17T22:17:36.068Z,24.55
2022-08-17T22:20:14.542Z,24.54
2022-08-17T22:23:08.784Z,24.52
2022-08-17T22:25:39.303Z,24.51
2022-08-17T22:28:09.375Z,24.54
2022-08-17T22:30:41.612Z,24.51
2022-08-17T22:33:30.065Z,24.51
2022-08-17T22:36:13.221Z,24.52
2022-08-17T22:38:41.643Z,24.48
2022-08-17T22:41:16.673Z,24.48
2022-08-17T22:43:44.906Z,24.44
2022-08-17T22:46:12.557Z,24.42
2022-08-17T22:48:48.678Z,24.37
2022-08-17T22:51:20.627Z,24.32
2022-08-17T22:54:16.244Z,24.31
2022-08-17T22:57:18.885Z,24.32
2022-08-17T22:59:52.340Z,24.31
2022-08-17T23:02:29.727Z,24.30
2022-08-17T23:05:15.907Z,24.24
2022-08-17T23:07:44.624Z,24.17
2022-08-17T23:10:12.299Z,24.11
2022-08-17T23:12:39.905Z,24.09
2022-08-17T23:15:14.501Z,24.09
2022-08-17T23:17:42.110Z,24.06
2022-08-17T23:20:12.560Z,24.07
2022-08-17T23:22:51.213Z,24.04
2022-08-17T23:25:28.243Z,24.01
2022-08-17T23:27:56.022Z,23.96
2022-08-17T23:30:25.485Z,23.96
2022-08-17T23:32:54.301Z,23.94
2022-08-17T23:35:39.650Z,23.93
2022-08-17T23:38:11.764Z,23.94
2022-08-17T23:40:39.572Z,23.93
2022-08-17T23:43:23.536Z,23.90
2022-08-17T23:45:53.030Z,23.89
2022-08-17T23:48:27.834Z,23.84
2022-08-17T23:51:06.008Z,23.80
2022-08-17T23:53:36.675Z,23.82
2022-08-17T23:56:10.472Z,23.74
2022-08-17T23:58:43.103Z,23.76
